sensor_id;sensor_type;location;lat;lon;timestamp;pressure;altitude;pressure_sealevel;temperature;humidity
58690;BME280;44470;53.206;-6.106;2022-10-16T00:01:19;99748.53;;;20.18;52.94
58690;BME280;44470;53.206;-6.106;2022-10-16T00:03:46;99775.84;;;20.27;53.06
58690;BME280;44470;53.206;-6.106;2022-10-16T00:06:12;99771.31;;;20.29;53.08
58690;BME280;44470;53.206;-6.106;2022-10-16T00:08:39;99767.13;;;20.22;53.50
58690;BME280;44470;53.206;-6.106;2022-10-16T00:11:07;99764.38;;;20.23;53.51
58690;BME280;44470;53.206;-6.106;2022-10-16T00:13:34;99768.63;;;20.29;53.20
58690;BME280;44470;53.206;-6.106;2022-10-16T00:16:01;99773.28;;;20.24;53.47
58690;BME280;44470;53.206;-6.106;2022-10-16T00:18:28;99773.28;;;20.24;53.36
58690;BME280;44470;53.206;-6.106;2022-10-16T00:20:54;99782.16;;;20.24;52.99
58690;BME280;44470;53.206;-6.106;2022-10-16T00:23:20;99771.25;;;20.30;53.27
58690;BME280;44470;53.206;-6.106;2022-10-16T00:25:55;99777.25;;;20.37;52.93
58690;BME280;44470;53.206;-6.106;2022-10-16T00:28:21;99790.88;;;20.29;53.18
58690;BME280;44470;53.206;-6.106;2022-10-16T00:30:47;99793.72;;;20.25;53.43
58690;BME280;44470;53.206;-6.106;2022-10-16T00:33:12;99779.78;;;20.16;53.04
58690;BME280;44470;53.206;-6.106;2022-10-16T00:35:38;99800.81;;;20.26;53.04
58690;BME280;44470;53.206;-6.106;2022-10-16T00:38:03;99798.84;;;20.31;52.75
58690;BME280;44470;53.206;-6.106;2022-10-16T00:40:29;99789.47;;;20.19;53.11
58690;BME280;44470;53.206;-6.106;2022-10-16T00:42:54;99802.56;;;20.27;52.82
58690;BME280;44470;53.206;-6.106;2022-10-16T00:45:20;99804.41;;;20.25;53.14
58690;BME280;44470;53.206;-6.106;2022-10-16T00:47:46;99803.66;;;20.21;52.80
58690;BME280;44470;53.206;-6.106;2022-10-16T00:50:29;99808.03;;;20.24;53.22
58690;BME280;44470;53.206;-6.106;2022-10-16T00:52:56;99809.66;;;20.28;52.94
58690;BME280;44470;53.206;-6.106;2022-10-16T00:55:23;99827.56;;;20.24;53.14
58690;BME280;44470;53.206;-6.106;2022-10-16T00:57:49;99820.44;;;20.25;53.04
58690;BME280;44470;53.206;-6.106;2022-10-16T01:00:21;99827.56;;;20.24;53.37
58690;BME280;44470;53.206;-6.106;2022-10-16T01:02:54;99816.75;;;20.29;52.98
58690;BME280;44470;53.206;-6.106;2022-10-16T01:05:22;99810.69;;;20.24;52.96
58690;BME280;44470;53.206;-6.106;2022-10-16T01:11:03;99834.75;;;20.24;52.71
58690;BME280;44470;53.206;-6.106;2022-10-16T01:13:36;99832.09;;;20.22;52.71
58690;BME280;44470;53.206;-6.106;2022-10-16T01:18:52;99828.63;;;20.20;52.76
58690;BME280;44470;53.206;-6.106;2022-10-16T01:21:38;99844.59;;;20.22;52.77
58690;BME280;44470;53.206;-6.106;2022-10-16T01:30:01;99853.44;;;20.24;53.22
58690;BME280;44470;53.206;-6.106;2022-10-16T01:35:37;99851.00;;;20.17;53.27
58690;BME280;44470;53.206;-6.106;2022-10-16T01:40:30;99852.84;;;20.15;53.27
58690;BME280;44470;53.206;-6.106;2022-10-16T01:43:05;99851.00;;;20.17;52.90
58690;BME280;44470;53.206;-6.106;2022-10-16T01:45:32;99840.19;;;20.21;53.17
58690;BME280;44470;53.206;-6.106;2022-10-16T01:48:00;99839.91;;;20.28;52.66
58690;BME280;44470;53.206;-6.106;2022-10-16T01:50:33;99871.16;;;20.26;52.39
58690;BME280;44470;53.206;-6.106;2022-10-16T01:53:01;99875.75;;;20.23;52.71
58690;BME280;44470;53.206;-6.106;2022-10-16T01:55:30;99893.53;;;20.24;52.78
58690;BME280;44470;53.206;-6.106;2022-10-16T01:57:58;99881.94;;;20.23;52.62
58690;BME280;44470;53.206;-6.106;2022-10-16T02:00:25;99904.09;;;20.27;52.59
58690;BME280;44470;53.206;-6.106;2022-10-16T02:02:53;99900.72;;;20.22;52.52
58690;BME280;44470;53.206;-6.106;2022-10-16T02:05:27;99913.25;;;20.20;52.87
58690;BME280;44470;53.206;-6.106;2022-10-16T02:07:54;99918.59;;;20.20;52.80
58690;BME280;44470;53.206;-6.106;2022-10-16T02:10:20;99926.63;;;20.20;52.90
58690;BME280;44470;53.206;-6.106;2022-10-16T02:13:00;99912.31;;;20.21;52.82
58690;BME280;44470;53.206;-6.106;2022-10-16T02:15:27;99927.31;;;20.25;52.68
58690;BME280;44470;53.206;-6.106;2022-10-16T02:17:52;99917.84;;;20.14;52.86
58690;BME280;44470;53.206;-6.106;2022-10-16T02:20:22;99916.78;;;20.20;53.11
58690;BME280;44470;53.206;-6.106;2022-10-16T02:22:51;99947.00;;;20.22;53.00
58690;BME280;44470;53.206;-6.106;2022-10-16T02:25:21;99942.66;;;20.20;52.97
58690;BME280;44470;53.206;-6.106;2022-10-16T02:28:06;99939.97;;;20.20;52.83
58690;BME280;44470;53.206;-6.106;2022-10-16T02:30:59;99947.16;;;20.17;52.60
58690;BME280;44470;53.206;-6.106;2022-10-16T02:33:27;99951.72;;;20.14;52.88
58690;BME280;44470;53.206;-6.106;2022-10-16T02:35:54;99960.69;;;20.11;52.98
58690;BME280;44470;53.206;-6.106;2022-10-16T02:38:22;99944.56;;;20.14;52.70
58690;BME280;44470;53.206;-6.106;2022-10-16T02:40:48;99949.19;;;20.09;52.67
58690;BME280;44470;53.206;-6.106;2022-10-16T02:43:14;99951.88;;;20.09;52.95
58690;BME280;44470;53.206;-6.106;2022-10-16T02:45:40;99968.44;;;20.21;52.73
58690;BME280;44470;53.206;-6.106;2022-10-16T02:48:06;99967.75;;;20.14;52.89
58690;BME280;44470;53.206;-6.106;2022-10-16T02:50:31;99969.50;;;20.15;52.68
58690;BME280;44470;53.206;-6.106;2022-10-16T02:52:57;99975.63;;;20.18;53.02
58690;BME280;44470;53.206;-6.106;2022-10-16T02:55:22;99973.97;;;20.14;53.07
58690;BME280;44470;53.206;-6.106;2022-10-16T02:57:48;99961.63;;;20.10;52.62
58690;BME280;44470;53.206;-6.106;2022-10-16T03:00:15;99996.25;;;20.13;52.71
58690;BME280;44470;53.206;-6.106;2022-10-16T03:02:41;99993.78;;;20.07;53.04
58690;BME280;44470;53.206;-6.106;2022-10-16T03:05:07;99998.06;;;20.13;52.86
58690;BME280;44470;53.206;-6.106;2022-10-16T03:07:32;100012.34;;;20.12;52.56
58690;BME280;44470;53.206;-6.106;2022-10-16T03:09:58;100009.53;;;20.16;52.68
58690;BME280;44470;53.206;-6.106;2022-10-16T03:12:28;99999.81;;;20.14;52.94
58690;BME280;44470;53.206;-6.106;2022-10-16T03:14:57;100001.78;;;20.07;52.93
58690;BME280;44470;53.206;-6.106;2022-10-16T03:17:24;100016.88;;;20.10;52.58
58690;BME280;44470;53.206;-6.106;2022-10-16T03:19:49;100022.09;;;20.13;52.96
58690;BME280;44470;53.206;-6.106;2022-10-16T03:22:15;100024.81;;;20.11;52.85
58690;BME280;44470;53.206;-6.106;2022-10-16T03:24:40;100011.28;;;20.17;52.70
58690;BME280;44470;53.206;-6.106;2022-10-16T03:27:06;100038.06;;;20.14;52.46
58690;BME280;44470;53.206;-6.106;2022-10-16T03:29:32;100029.06;;;20.18;52.36
58690;BME280;44470;53.206;-6.106;2022-10-16T03:31:58;100021.97;;;20.17;52.44
58690;BME280;44470;53.206;-6.106;2022-10-16T03:34:26;100021.59;;;20.01;52.93
58690;BME280;44470;53.206;-6.106;2022-10-16T03:36:53;100040.00;;;20.09;52.79
58690;BME280;44470;53.206;-6.106;2022-10-16T03:39:19;100047.00;;;20.13;52.74
58690;BME280;44470;53.206;-6.106;2022-10-16T03:41:44;100071.91;;;20.15;52.64
58690;BME280;44470;53.206;-6.106;2022-10-16T03:44:11;100074.63;;;20.14;52.86
58690;BME280;44470;53.206;-6.106;2022-10-16T03:46:38;100084.41;;;20.13;52.73
58690;BME280;44470;53.206;-6.106;2022-10-16T03:49:03;100077.25;;;20.15;52.35
58690;BME280;44470;53.206;-6.106;2022-10-16T03:51:29;100094.13;;;20.17;52.67
58690;BME280;44470;53.206;-6.106;2022-10-16T03:53:54;100094.19;;;20.14;52.41
58690;BME280;44470;53.206;-6.106;2022-10-16T03:56:20;100106.72;;;20.12;52.81
58690;BME280;44470;53.206;-6.106;2022-10-16T03:58:45;100097.97;;;20.07;52.60
58690;BME280;44470;53.206;-6.106;2022-10-16T04:01:11;100111.91;;;20.17;52.30
58690;BME280;44470;53.206;-6.106;2022-10-16T04:03:36;100110.47;;;20.07;52.26
58690;BME280;44470;53.206;-6.106;2022-10-16T04:06:02;100131.75;;;20.10;52.89
58690;BME280;44470;53.206;-6.106;2022-10-16T04:08:27;100136.06;;;20.14;52.89
58690;BME280;44470;53.206;-6.106;2022-10-16T04:10:53;100152.06;;;20.15;52.49
58690;BME280;44470;53.206;-6.106;2022-10-16T04:13:18;100164.66;;;20.10;52.69
58690;BME280;44470;53.206;-6.106;2022-10-16T04:15:45;100183.19;;;20.16;52.83
58690;BME280;44470;53.206;-6.106;2022-10-16T04:18:10;100170.06;;;20.09;52.62
58690;BME280;44470;53.206;-6.106;2022-10-16T04:20:36;100185.00;;;20.14;52.88
58690;BME280;44470;53.206;-6.106;2022-10-16T04:23:02;100180.84;;;20.06;52.91
58690;BME280;44470;53.206;-6.106;2022-10-16T04:25:27;100198.31;;;20.17;52.54
58690;BME280;44470;53.206;-6.106;2022-10-16T04:27:54;100203.81;;;20.11;52.74
58690;BME280;44470;53.206;-6.106;2022-10-16T04:30:20;100194.63;;;19.88;52.97
58690;BME280;44470;53.206;-6.106;2022-10-16T04:32:49;100199.84;;;19.95;53.22
58690;BME280;44470;53.206;-6.106;2022-10-16T04:35:16;100220.16;;;20.00;53.06
58690;BME280;44470;53.206;-6.106;2022-10-16T04:37:41;100226.50;;;19.96;53.25
58690;BME280;44470;53.206;-6.106;2022-10-16T04:40:07;100244.88;;;20.07;52.78
58690;BME280;44470;53.206;-6.106;2022-10-16T04:42:32;100244.88;;;20.07;52.76
58690;BME280;44470;53.206;-6.106;2022-10-16T04:44:58;100246.56;;;20.11;53.12
58690;BME280;44470;53.206;-6.106;2022-10-16T04:47:23;100229.22;;;19.95;52.85
58690;BME280;44470;53.206;-6.106;2022-10-16T04:49:49;100233.44;;;20.03;52.95
58690;BME280;44470;53.206;-6.106;2022-10-16T04:52:14;100248.28;;;20.14;52.95
58690;BME280;44470;53.206;-6.106;2022-10-16T04:54:40;100260.81;;;20.10;53.02
58690;BME280;44470;53.206;-6.106;2022-10-16T04:57:05;100262.66;;;20.08;52.91
58690;BME280;44470;53.206;-6.106;2022-10-16T04:59:31;100262.56;;;20.11;52.94
58690;BME280;44470;53.206;-6.106;2022-10-16T05:01:57;100278.59;;;20.11;53.08
58690;BME280;44470;53.206;-6.106;2022-10-16T05:04:22;100269.72;;;20.11;52.67
58690;BME280;44470;53.206;-6.106;2022-10-16T05:06:48;100285.88;;;20.06;52.96
58690;BME280;44470;53.206;-6.106;2022-10-16T05:09:13;100280.44;;;20.09;53.13
58690;BME280;44470;53.206;-6.106;2022-10-16T05:11:39;100282.06;;;20.16;52.84
58690;BME280;44470;53.206;-6.106;2022-10-16T05:14:04;100269.84;;;20.06;52.70
58690;BME280;44470;53.206;-6.106;2022-10-16T05:16:30;100290.44;;;20.02;53.04
58690;BME280;44470;53.206;-6.106;2022-10-16T05:18:56;100285.88;;;20.06;52.69
58690;BME280;44470;53.206;-6.106;2022-10-16T05:21:22;100301.91;;;20.06;52.82
58690;BME280;44470;53.206;-6.106;2022-10-16T05:23:47;100309.09;;;20.04;52.95
58690;BME280;44470;53.206;-6.106;2022-10-16T05:26:13;100302.91;;;20.02;52.64
58690;BME280;44470;53.206;-6.106;2022-10-16T05:28:38;100327.59;;;20.12;53.08
58690;BME280;44470;53.206;-6.106;2022-10-16T05:31:08;100324.84;;;20.15;53.00
58690;BME280;44470;53.206;-6.106;2022-10-16T05:33:34;100333.78;;;20.12;52.62
58690;BME280;44470;53.206;-6.106;2022-10-16T05:36:07;100348.06;;;20.11;52.85
58690;BME280;44470;53.206;-6.106;2022-10-16T05:38:34;100357.00;;;20.10;52.97
58690;BME280;44470;53.206;-6.106;2022-10-16T05:40:59;100362.25;;;20.13;52.49
58690;BME280;44470;53.206;-6.106;2022-10-16T05:43:27;100358.09;;;20.03;52.72
58690;BME280;44470;53.206;-6.106;2022-10-16T05:46:01;100381.84;;;20.15;52.45
58690;BME280;44470;53.206;-6.106;2022-10-16T05:48:27;100380.22;;;20.08;52.73
58690;BME280;44470;53.206;-6.106;2022-10-16T05:51:03;100396.31;;;20.05;52.68
58690;BME280;44470;53.206;-6.106;2022-10-16T05:53:30;100406.94;;;20.08;52.87
58690;BME280;44470;53.206;-6.106;2022-10-16T05:55:57;100420.34;;;20.07;53.12
58690;BME280;44470;53.206;-6.106;2022-10-16T05:58:23;100429.19;;;20.09;52.61
58690;BME280;44470;53.206;-6.106;2022-10-16T06:01:02;100431.81;;;20.10;52.69
58690;BME280;44470;53.206;-6.106;2022-10-16T06:03:28;100439.00;;;20.08;52.61
58690;BME280;44470;53.206;-6.106;2022-10-16T06:05:53;100450.66;;;20.06;53.06
58690;BME280;44470;53.206;-6.106;2022-10-16T06:08:21;100442.66;;;20.04;52.86
58690;BME280;44470;53.206;-6.106;2022-10-16T06:10:47;100445.09;;;20.13;52.92
58690;BME280;44470;53.206;-6.106;2022-10-16T06:13:13;100445.25;;;20.07;52.69
58690;BME280;44470;53.206;-6.106;2022-10-16T06:15:40;100465.63;;;20.11;52.75
58690;BME280;44470;53.206;-6.106;2022-10-16T06:18:08;100463.00;;;20.10;52.87
58690;BME280;44470;53.206;-6.106;2022-10-16T06:20:34;100467.53;;;20.08;52.84
58690;BME280;44470;53.206;-6.106;2022-10-16T06:22:59;100460.28;;;20.11;52.79
58690;BME280;44470;53.206;-6.106;2022-10-16T06:25:25;100462.03;;;20.12;52.77
58690;BME280;44470;53.206;-6.106;2022-10-16T06:27:50;100465.78;;;20.05;52.85
58690;BME280;44470;53.206;-6.106;2022-10-16T06:30:16;100470.13;;;20.09;52.72
58690;BME280;44470;53.206;-6.106;2022-10-16T06:32:41;100472.78;;;20.11;52.46
58690;BME280;44470;53.206;-6.106;2022-10-16T06:35:07;100486.09;;;20.12;52.43
58690;BME280;44470;53.206;-6.106;2022-10-16T06:37:33;100480.94;;;20.04;52.77
58690;BME280;44470;53.206;-6.106;2022-10-16T06:39:58;100498.03;;;19.97;52.82
58690;BME280;44470;53.206;-6.106;2022-10-16T06:42:25;100490.88;;;19.99;52.88
58690;BME280;44470;53.206;-6.106;2022-10-16T06:44:50;100501.63;;;19.96;53.00
58690;BME280;44470;53.206;-6.106;2022-10-16T06:47:16;100513.22;;;19.95;53.20
58690;BME280;44470;53.206;-6.106;2022-10-16T06:49:41;100503.41;;;19.96;52.75
58690;BME280;44470;53.206;-6.106;2022-10-16T06:52:07;100535.25;;;20.05;53.08
58690;BME280;44470;53.206;-6.106;2022-10-16T06:54:32;100542.41;;;20.03;53.08
58690;BME280;44470;53.206;-6.106;2022-10-16T06:56:58;100534.63;;;19.94;52.86
58690;BME280;44470;53.206;-6.106;2022-10-16T06:59:25;100538.97;;;19.98;53.13
58690;BME280;44470;53.206;-6.106;2022-10-16T07:01:50;100546.00;;;20.02;53.10
58690;BME280;44470;53.206;-6.106;2022-10-16T07:04:16;100551.34;;;20.02;52.94
58690;BME280;44470;53.206;-6.106;2022-10-16T07:06:41;100550.63;;;19.95;53.00
58690;BME280;44470;53.206;-6.106;2022-10-16T07:09:09;100549.88;;;19.87;53.33
58690;BME280;44470;53.206;-6.106;2022-10-16T07:11:37;100550.66;;;19.94;53.30
58690;BME280;44470;53.206;-6.106;2022-10-16T07:14:03;100547.97;;;19.94;53.04
58690;BME280;44470;53.206;-6.106;2022-10-16T07:16:31;100539.16;;;19.88;53.19
58690;BME280;44470;53.206;-6.106;2022-10-16T07:18:58;100537.28;;;19.94;53.47
58690;BME280;44470;53.206;-6.106;2022-10-16T07:21:30;100541.72;;;19.95;53.36
58690;BME280;44470;53.206;-6.106;2022-10-16T07:23:58;100554.91;;;20.02;52.68
58690;BME280;44470;53.206;-6.106;2022-10-16T07:26:25;100556.69;;;20.02;52.77
58690;BME280;44470;53.206;-6.106;2022-10-16T07:28:51;100582.63;;;19.97;52.97
58690;BME280;44470;53.206;-6.106;2022-10-16T07:31:19;100593.38;;;19.95;53.38
58690;BME280;44470;53.206;-6.106;2022-10-16T07:33:45;100599.50;;;19.99;53.14
58690;BME280;44470;53.206;-6.106;2022-10-16T07:36:13;100609.25;;;20.01;53.12
58690;BME280;44470;53.206;-6.106;2022-10-16T07:38:39;100612.91;;;19.97;53.00
58690;BME280;44470;53.206;-6.106;2022-10-16T07:41:06;100611.88;;;20.03;52.87
58690;BME280;44470;53.206;-6.106;2022-10-16T07:43:33;100612.84;;;19.99;52.74
58690;BME280;44470;53.206;-6.106;2022-10-16T07:45:59;100627.00;;;20.04;52.78
58690;BME280;44470;53.206;-6.106;2022-10-16T07:48:27;100623.47;;;20.02;52.90
58690;BME280;44470;53.206;-6.106;2022-10-16T07:50:59;100630.63;;;20.01;52.65
58690;BME280;44470;53.206;-6.106;2022-10-16T07:53:26;100635.06;;;20.01;52.85
58690;BME280;44470;53.206;-6.106;2022-10-16T07:55:52;100635.97;;;20.01;52.70
58690;BME280;44470;53.206;-6.106;2022-10-16T07:58:21;100638.59;;;20.03;52.78
58690;BME280;44470;53.206;-6.106;2022-10-16T08:00:47;100648.44;;;20.01;52.88
58690;BME280;44470;53.206;-6.106;2022-10-16T08:03:12;100654.63;;;20.03;52.45
58690;BME280;44470;53.206;-6.106;2022-10-16T08:05:38;100654.66;;;20.01;52.43
58690;BME280;44470;53.206;-6.106;2022-10-16T08:08:03;100654.69;;;20.00;52.51
58690;BME280;44470;53.206;-6.106;2022-10-16T08:10:29;100646.78;;;19.95;52.62
58690;BME280;44470;53.206;-6.106;2022-10-16T08:12:55;100653.72;;;20.04;52.76
58690;BME280;44470;53.206;-6.106;2022-10-16T08:15:20;100661.91;;;19.95;52.81
58690;BME280;44470;53.206;-6.106;2022-10-16T08:18:00;100665.44;;;19.97;52.76
58690;BME280;44470;53.206;-6.106;2022-10-16T08:20:26;100662.00;;;19.92;53.11
58690;BME280;44470;53.206;-6.106;2022-10-16T08:22:52;100663.78;;;19.89;53.17
58690;BME280;44470;53.206;-6.106;2022-10-16T08:25:17;100652.25;;;19.87;52.86
58690;BME280;44470;53.206;-6.106;2022-10-16T08:27:43;100660.22;;;19.91;53.16
58690;BME280;44470;53.206;-6.106;2022-10-16T08:30:10;100654.91;;;19.87;53.40
58690;BME280;44470;53.206;-6.106;2022-10-16T08:32:36;100655.91;;;19.83;53.11
58690;BME280;44470;53.206;-6.106;2022-10-16T08:35:01;100662.03;;;19.88;53.26
58690;BME280;44470;53.206;-6.106;2022-10-16T08:37:31;100651.59;;;19.76;53.23
58690;BME280;44470;53.206;-6.106;2022-10-16T08:39:58;100670.13;;;19.84;53.65
58690;BME280;44470;53.206;-6.106;2022-10-16T08:47:44;100653.34;;;19.77;53.50
58690;BME280;44470;53.206;-6.106;2022-10-16T08:50:18;100662.09;;;19.85;54.30
58690;BME280;44470;53.206;-6.106;2022-10-16T08:52:45;100667.63;;;19.76;54.18
58690;BME280;44470;53.206;-6.106;2022-10-16T08:55:43;100671.88;;;19.85;54.08
58690;BME280;44470;53.206;-6.106;2022-10-16T08:58:14;100676.53;;;19.75;54.47
58690;BME280;44470;53.206;-6.106;2022-10-16T09:00:42;100688.91;;;19.79;54.37
58690;BME280;44470;53.206;-6.106;2022-10-16T09:03:50;100685.34;;;19.80;53.96
58690;BME280;44470;53.206;-6.106;2022-10-16T09:22:47;100692.56;;;19.75;55.89
58690;BME280;44470;53.206;-6.106;2022-10-16T09:25:19;100695.97;;;19.83;57.76
58690;BME280;44470;53.206;-6.106;2022-10-16T09:27:48;100703.06;;;19.83;59.13
58690;BME280;44470;53.206;-6.106;2022-10-16T09:30:19;100705.66;;;19.87;59.47
58690;BME280;44470;53.206;-6.106;2022-10-16T09:32:48;100705.44;;;20.01;58.04
58690;BME280;44470;53.206;-6.106;2022-10-16T09:35:27;100711.75;;;19.96;56.47
58690;BME280;44470;53.206;-6.106;2022-10-16T09:37:56;100723.94;;;20.09;55.12
58690;BME280;44470;53.206;-6.106;2022-10-16T09:40:32;100718.50;;;20.15;54.59
58690;BME280;44470;53.206;-6.106;2022-10-16T09:45:37;100725.81;;;20.06;54.84
58690;BME280;44470;53.206;-6.106;2022-10-16T09:48:11;100721.31;;;20.08;54.91
58690;BME280;44470;53.206;-6.106;2022-10-16T09:50:37;100726.66;;;20.08;54.79
58690;BME280;44470;53.206;-6.106;2022-10-16T09:53:05;100723.28;;;19.98;55.06
58690;BME280;44470;53.206;-6.106;2022-10-16T09:55:31;100738.53;;;19.94;55.73
58690;BME280;44470;53.206;-6.106;2022-10-16T09:57:56;100740.28;;;19.95;56.09
58690;BME280;44470;53.206;-6.106;2022-10-16T10:00:23;100736.63;;;19.99;55.92
58690;BME280;44470;53.206;-6.106;2022-10-16T10:02:49;100714.47;;;19.94;55.89
58690;BME280;44470;53.206;-6.106;2022-10-16T10:05:21;100720.56;;;20.01;55.74
58690;BME280;44470;53.206;-6.106;2022-10-16T10:07:55;100716.97;;;20.03;55.62
58690;BME280;44470;53.206;-6.106;2022-10-16T10:10:24;100719.59;;;20.05;55.37
58690;BME280;44470;53.206;-6.106;2022-10-16T10:12:50;100715.00;;;20.12;55.46
58690;BME280;44470;53.206;-6.106;2022-10-16T10:15:16;100696.50;;;20.02;55.63
58690;BME280;44470;53.206;-6.106;2022-10-16T10:17:52;100713.19;;;20.14;55.38
58690;BME280;44470;53.206;-6.106;2022-10-16T10:20:23;100695.59;;;20.02;55.46
58690;BME280;44470;53.206;-6.106;2022-10-16T10:22:49;100696.50;;;20.02;55.67
58690;BME280;44470;53.206;-6.106;2022-10-16T10:25:19;100725.72;;;20.10;55.82
58690;BME280;44470;53.206;-6.106;2022-10-16T10:27:58;100732.09;;;20.03;56.26
58690;BME280;44470;53.206;-6.106;2022-10-16T10:36:20;100715.00;;;20.12;56.04
58690;BME280;44470;53.206;-6.106;2022-10-16T10:38:59;100711.63;;;20.02;56.38
58690;BME280;44470;53.206;-6.106;2022-10-16T11:03:35;100740.94;;;20.07;56.39
58690;BME280;44470;53.206;-6.106;2022-10-16T11:06:07;100728.44;;;20.09;56.03
58690;BME280;44470;53.206;-6.106;2022-10-16T11:08:39;100728.22;;;20.18;55.85
58690;BME280;44470;53.206;-6.106;2022-10-16T11:11:22;100738.22;;;20.08;56.58
58690;BME280;44470;53.206;-6.106;2022-10-16T11:16:28;100735.59;;;20.05;56.54
58690;BME280;44470;53.206;-6.106;2022-10-16T11:21:51;100741.94;;;20.01;56.45
58690;BME280;44470;53.206;-6.106;2022-10-16T11:26:56;100742.00;;;19.98;56.39
58690;BME280;44470;53.206;-6.106;2022-10-16T11:29:29;100745.44;;;20.03;56.27
58690;BME280;44470;53.206;-6.106;2022-10-16T11:32:06;100733.19;;;19.93;56.40
58690;BME280;44470;53.206;-6.106;2022-10-16T11:34:48;100739.31;;;19.99;56.50
58690;BME280;44470;53.206;-6.106;2022-10-16T11:40:21;100749.81;;;20.07;56.09
58690;BME280;44470;53.206;-6.106;2022-10-16T11:42:58;100748.19;;;20.00;56.40
58690;BME280;44470;53.206;-6.106;2022-10-16T11:45:48;100747.28;;;20.01;56.18
58690;BME280;44470;53.206;-6.106;2022-10-16T11:51:03;100743.69;;;20.03;55.97
58690;BME280;44470;53.206;-6.106;2022-10-16T11:56:12;100731.13;;;20.07;56.18
58690;BME280;44470;53.206;-6.106;2022-10-16T11:58:55;100720.44;;;20.07;56.26
58690;BME280;44470;53.206;-6.106;2022-10-16T12:01:28;100722.38;;;19.99;56.21
58690;BME280;44470;53.206;-6.106;2022-10-16T12:04:05;100739.19;;;20.06;56.22
58690;BME280;44470;53.206;-6.106;2022-10-16T12:06:47;100732.13;;;20.01;56.19
58690;BME280;44470;53.206;-6.106;2022-10-16T12:09:22;100721.53;;;19.98;56.31
58690;BME280;44470;53.206;-6.106;2022-10-16T12:11:49;100721.53;;;19.98;56.53
58690;BME280;44470;53.206;-6.106;2022-10-16T12:19:25;100707.31;;;19.96;56.73
58690;BME280;44470;53.206;-6.106;2022-10-16T12:21:55;100704.78;;;19.90;56.80
58690;BME280;44470;53.206;-6.106;2022-10-16T12:24:34;100703.84;;;19.88;56.74
58690;BME280;44470;53.206;-6.106;2022-10-16T12:27:01;100711.00;;;19.89;56.67
58690;BME280;44470;53.206;-6.106;2022-10-16T12:29:34;100710.09;;;19.88;56.81
58690;BME280;44470;53.206;-6.106;2022-10-16T12:32:03;100710.06;;;19.92;56.44
58690;BME280;44470;53.206;-6.106;2022-10-16T12:34:41;100718.94;;;19.94;56.81
58690;BME280;44470;53.206;-6.106;2022-10-16T12:37:15;100717.19;;;19.89;57.04
58690;BME280;44470;53.206;-6.106;2022-10-16T12:39:45;100706.34;;;19.99;56.54
58690;BME280;44470;53.206;-6.106;2022-10-16T12:44:53;100697.59;;;19.92;56.75
58690;BME280;44470;53.206;-6.106;2022-10-16T12:47:36;100706.53;;;19.91;57.06
58690;BME280;44470;53.206;-6.106;2022-10-16T12:50:03;100701.00;;;19.99;56.30
58690;BME280;44470;53.206;-6.106;2022-10-16T12:52:37;100698.31;;;20.00;56.55
58690;BME280;44470;53.206;-6.106;2022-10-16T12:55:05;100687.66;;;19.99;56.20
58690;BME280;44470;53.206;-6.106;2022-10-16T13:00:45;100660.22;;;19.92;56.24
58690;BME280;44470;53.206;-6.106;2022-10-16T13:22:20;100640.47;;;19.99;56.71
58690;BME280;44470;53.206;-6.106;2022-10-16T13:27:50;100616.56;;;19.93;56.31
58690;BME280;44470;53.206;-6.106;2022-10-16T13:30:20;100627.13;;;19.98;56.71
58690;BME280;44470;53.206;-6.106;2022-10-16T13:32:49;100617.34;;;19.98;56.83
58690;BME280;44470;53.206;-6.106;2022-10-16T13:35:29;100608.44;;;19.98;56.59
58690;BME280;44470;53.206;-6.106;2022-10-16T13:38:11;100592.47;;;19.95;56.38
58690;BME280;44470;53.206;-6.106;2022-10-16T13:41:12;100570.19;;;19.96;56.53
58690;BME280;44470;53.206;-6.106;2022-10-16T13:43:48;100560.53;;;19.90;56.67
58690;BME280;44470;53.206;-6.106;2022-10-16T13:46:18;100571.22;;;19.88;56.60
58690;BME280;44470;53.206;-6.106;2022-10-16T13:48:44;100584.44;;;19.96;56.36
58690;BME280;44470;53.206;-6.106;2022-10-16T13:51:17;100594.16;;;19.99;56.65
58690;BME280;44470;53.206;-6.106;2022-10-16T13:53:44;100583.59;;;19.94;56.86
58690;BME280;44470;53.206;-6.106;2022-10-16T13:56:16;100580.03;;;19.94;56.85
58690;BME280;44470;53.206;-6.106;2022-10-16T13:58:43;100563.22;;;19.87;57.16
58690;BME280;44470;53.206;-6.106;2022-10-16T14:01:30;100561.19;;;20.00;56.74
58690;BME280;44470;53.206;-6.106;2022-10-16T14:04:02;100559.81;;;19.80;57.01
58690;BME280;44470;53.206;-6.106;2022-10-16T14:06:29;100554.28;;;19.88;57.00
58690;BME280;44470;53.206;-6.106;2022-10-16T14:09:05;100545.56;;;19.81;57.21
58690;BME280;44470;53.206;-6.106;2022-10-16T14:11:32;100530.22;;;19.89;56.72
58690;BME280;44470;53.206;-6.106;2022-10-16T14:14:20;100533.75;;;19.93;56.25
58690;BME280;44470;53.206;-6.106;2022-10-16T14:16:46;100509.94;;;19.81;56.99
58690;BME280;44470;53.206;-6.106;2022-10-16T14:19:18;100521.94;;;20.03;56.32
58690;BME280;44470;53.206;-6.106;2022-10-16T14:21:44;100526.59;;;19.94;56.79
58690;BME280;44470;53.206;-6.106;2022-10-16T14:24:13;100526.59;;;19.94;56.66
58690;BME280;44470;53.206;-6.106;2022-10-16T14:26:47;100523.22;;;19.85;57.17
58690;BME280;44470;53.206;-6.106;2022-10-16T14:29:17;100512.53;;;19.84;57.01
58690;BME280;44470;53.206;-6.106;2022-10-16T14:31:57;100499.91;;;19.94;56.84
58690;BME280;44470;53.206;-6.106;2022-10-16T14:36:54;100496.44;;;19.88;57.24
58690;BME280;44470;53.206;-6.106;2022-10-16T14:39:21;100497.31;;;19.89;57.01
58690;BME280;44470;53.206;-6.106;2022-10-16T14:41:49;100496.66;;;19.79;57.08
58690;BME280;44470;53.206;-6.106;2022-10-16T14:44:17;100492.94;;;19.85;57.42
58690;BME280;44470;53.206;-6.106;2022-10-16T14:46:44;100472.38;;;19.88;56.97
58690;BME280;44470;53.206;-6.106;2022-10-16T14:51:37;100464.19;;;19.98;56.46
58690;BME280;44470;53.206;-6.106;2022-10-16T14:54:03;100456.38;;;19.90;56.83
58690;BME280;44470;53.206;-6.106;2022-10-16T14:56:32;100457.13;;;19.95;56.60